createdAt,value
2023-03-26T00:01:40.296Z,100396.44
2023-03-26T00:04:27.964Z,100399.09
2023-03-26T00:07:13.756Z,100395.47
2023-03-26T00:09:59.847Z,100397.53
2023-03-26T00:12:45.794Z,100395.03
2023-03-26T00:15:31.620Z,100398.66
2023-03-26T00:18:19.962Z,100397.53
2023-03-26T00:21:07.876Z,100404.63
2023-03-26T00:23:53.604Z,100418.66
2023-03-26T00:26:40.926Z,100413.28
2023-03-26T00:29:27.799Z,100425.38
2023-03-26T00:32:13.715Z,100422.16
2023-03-26T00:35:00.787Z,100424.53
2023-03-26T00:37:51.358Z,100421.22
2023-03-26T00:40:46.613Z,100419.50
2023-03-26T00:43:32.909Z,100415.66
2023-03-26T00:46:21.094Z,100413.97
2023-03-26T00:49:12.548Z,100429.56
2023-03-26T00:51:59.255Z,100415.38
2023-03-26T00:54:47.143Z,100410.22
2023-03-26T00:57:37.461Z,100414.81
2023-03-26T01:00:28.854Z,100422.59
2023-03-26T01:03:26.797Z,100420.66
2023-03-26T01:06:14.667Z,100410.09
2023-03-26T01:09:07.319Z,100423.56
2023-03-26T01:11:55.658Z,100415.50
2023-03-26T01:14:41.565Z,100406.19
2023-03-26T01:17:34.285Z,100406.19
2023-03-26T01:20:21.354Z,100413.16
2023-03-26T01:23:09.670Z,100408.84
2023-03-26T01:25:58.028Z,100415.94
2023-03-26T01:28:57.351Z,100396.69
2023-03-26T01:31:48.864Z,100391.41
2023-03-26T01:34:37.383Z,100393.38
2023-03-26T01:37:24.629Z,100382.78
2023-03-26T01:40:12.510Z,100372.50
2023-03-26T01:43:01.357Z,100365.84
2023-03-26T01:45:47.311Z,100349.97
2023-03-26T01:48:34.692Z,100349.56
2023-03-26T01:51:27.609Z,100336.59
2023-03-26T01:54:14.421Z,100321.03
2023-03-26T01:57:03.189Z,100299.22
2023-03-26T01:59:58.046Z,100281.84
2023-03-26T02:02:46.868Z,100271.00
2023-03-26T02:05:34.044Z,100260.84
2023-03-26T02:08:22.631Z,100250.69
2023-03-26T02:11:12.963Z,100237.78
2023-03-26T02:13:59.489Z,100232.22
2023-03-26T02:16:47.795Z,100227.91
2023-03-26T02:19:33.794Z,100219.28
2023-03-26T02:22:19.559Z,100220.38
2023-03-26T02:25:05.710Z,100215.81
2023-03-26T02:27:52.354Z,100205.69
2023-03-26T02:30:39.806Z,100210.22
2023-03-26T02:33:27.358Z,100219.00
2023-03-26T02:36:14.038Z,100217.31
2023-03-26T02:39:02.309Z,100231.63
2023-03-26T02:41:51.605Z,100230.66
2023-03-26T02:44:40.079Z,100236.75
2023-03-26T02:47:33.557Z,100244.53
2023-03-26T02:50:50.139Z,100250.78
2023-03-26T02:53:55.949Z,100257.03
2023-03-26T02:56:59.711Z,100259.53
2023-03-26T03:00:16.627Z,100263.00
2023-03-26T03:03:06.600Z,100276.94
2023-03-26T03:05:54.379Z,100267.22
2023-03-26T03:08:49.883Z,100268.28
2023-03-26T03:11:36.399Z,100274.28
2023-03-26T03:14:23.987Z,100267.59
2023-03-26T03:17:09.844Z,100260.66
2023-03-26T03:19:55.745Z,100256.19
2023-03-26T03:22:42.740Z,100239.94
2023-03-26T03:25:28.490Z,100220.66
2023-03-26T03:28:15.220Z,100198.97
2023-03-26T03:31:01.103Z,100177.88
2023-03-26T03:33:51.113Z,100158.16
2023-03-26T03:36:38.338Z,100144.25
2023-03-26T03:39:34.206Z,100126.06
2023-03-26T03:42:20.679Z,100111.47
2023-03-26T03:45:09.048Z,100103.84
2023-03-26T03:48:13.432Z,100086.78
2023-03-26T03:51:02.845Z,100083.56
2023-03-26T03:53:58.159Z,100082.19
2023-03-26T03:57:15.887Z,100086.19
2023-03-26T04:00:11.946Z,100090.09
2023-03-26T04:03:09.990Z,100099.09
2023-03-26T04:05:56.174Z,100109.19
2023-03-26T04:08:45.499Z,100130.53
2023-03-26T04:11:31.259Z,100137.19
2023-03-26T04:14:32.414Z,100152.69
2023-03-26T04:17:22.170Z,100170.03
2023-03-26T04:20:14.852Z,100181.81
2023-03-26T04:23:03.279Z,100196.19
2023-03-26T04:25:50.325Z,100212.28
2023-03-26T04:28:42.827Z,100224.75
2023-03-26T04:31:38.173Z,100250.25
2023-03-26T04:34:25.036Z,100260.66
2023-03-26T04:37:26.510Z,100270.13
2023-03-26T04:40:23.156Z,100288.56
2023-03-26T04:43:21.652Z,100293.84
2023-03-26T04:46:26.583Z,100299.81
2023-03-26T04:49:24.819Z,100317.19
2023-03-26T04:52:11.091Z,100320.53
2023-03-26T04:55:19.612Z,100327.34
2023-03-26T04:58:09.451Z,100333.44
2023-03-26T05:01:12.561Z,100330.09
2023-03-26T05:04:01.824Z,100335.25
2023-03-26T05:06:50.025Z,100340.38
2023-03-26T05:09:42.254Z,100329.72
2023-03-26T05:12:35.362Z,100333.03
2023-03-26T05:15:25.632Z,100331.50
2023-03-26T05:18:25.223Z,100347.19
2023-03-26T05:21:12.508Z,100342.75
2023-03-26T05:24:01.985Z,100353.88
2023-03-26T05:26:47.787Z,100351.09
2023-03-26T05:29:34.050Z,100357.34
2023-03-26T05:32:20.826Z,100361.66
2023-03-26T05:35:09.786Z,100361.53
2023-03-26T05:37:56.755Z,100363.91
2023-03-26T05:40:45.249Z,100369.06
2023-03-26T05:43:36.389Z,100359.09
2023-03-26T05:46:35.117Z,100372.00
2023-03-26T05:49:21.133Z,100370.81
2023-03-26T05:52:07.528Z,100372.09
2023-03-26T05:55:12.747Z,100370.75
2023-03-26T05:58:19.078Z,100381.03
2023-03-26T06:01:29.291Z,100372.47
2023-03-26T06:04:35.259Z,100377.22
2023-03-26T06:07:40.417Z,100377.66
2023-03-26T06:10:33.764Z,100380.72
2023-03-26T06:13:21.200Z,100380.34
2023-03-26T06:16:09.200Z,100373.97
2023-03-26T06:19:16.529Z,100365.50
2023-03-26T06:22:08.620Z,100365.94
2023-03-26T06:25:12.874Z,100355.72
2023-03-26T06:28:06.520Z,100353.91
2023-03-26T06:31:09.589Z,100355.84
2023-03-26T06:34:03.877Z,100354.50
2023-03-26T06:36:52.470Z,100354.09
2023-03-26T06:39:39.572Z,100346.03
2023-03-26T06:43:08.225Z,100335.75
2023-03-26T06:46:14.573Z,100329.94
2023-03-26T06:49:19.355Z,100328.28
2023-03-26T06:52:23.913Z,100323.53
2023-03-26T06:55:26.489Z,100310.50
2023-03-26T06:58:43.404Z,100301.03
2023-03-26T07:01:49.456Z,100297.13
2023-03-26T07:04:54.414Z,100289.63
2023-03-26T07:08:09.494Z,100271.22
2023-03-26T07:11:16.581Z,100259.47
2023-03-26T07:14:21.400Z,100241.19
2023-03-26T07:17:20.929Z,100220.84
2023-03-26T07:20:21.842Z,100198.50
2023-03-26T07:23:07.904Z,100176.03
2023-03-26T07:26:14.270Z,100145.81
2023-03-26T07:29:16.649Z,100110.34
2023-03-26T07:32:28.030Z,100080.88
2023-03-26T07:35:33.784Z,100052.84
2023-03-26T07:38:33.455Z,100027.28
2023-03-26T07:41:39.920Z,99996.53
2023-03-26T07:44:48.424Z,99973.09
2023-03-26T07:47:57.017Z,99939.03
2023-03-26T07:50:54.205Z,99911.91
2023-03-26T07:53:47.962Z,99894.91
2023-03-26T07:57:14.447Z,99881.00
2023-03-26T08:00:14.159Z,99876.06
2023-03-26T08:03:14.704Z,99867.09
2023-03-26T08:06:32.165Z,99859.63
2023-03-26T08:09:39.560Z,99852.47
2023-03-26T08:12:52.174Z,99856.59
2023-03-26T08:15:39.139Z,99840.38
2023-03-26T08:18:29.154Z,99836.31
2023-03-26T08:21:17.093Z,99837.88
2023-03-26T08:24:04.729Z,99833.34
2023-03-26T08:26:52.755Z,99835.25
2023-03-26T08:29:39.523Z,99839.69
2023-03-26T08:32:25.476Z,99835.34
2023-03-26T08:35:14.361Z,99841.22
2023-03-26T08:38:00.350Z,99837.69
2023-03-26T08:41:04.550Z,99836.25
2023-03-26T08:43:56.120Z,99839.69
2023-03-26T08:46:50.290Z,99839.78
2023-03-26T08:49:51.402Z,99846.41
2023-03-26T08:52:49.608Z,99844.88
2023-03-26T08:55:38.466Z,99844.53
2023-03-26T08:58:45.485Z,99845.25
2023-03-26T09:01:33.248Z,99846.38
2023-03-26T09:04:27.105Z,99848.31
2023-03-26T09:07:25.420Z,99844.66
2023-03-26T09:10:27.728Z,99843.91
2023-03-26T09:13:34.036Z,99844.09
2023-03-26T09:16:26.749Z,99853.28
2023-03-26T09:19:29.791Z,99854.03
2023-03-26T09:22:24.218Z,99846.31
2023-03-26T09:25:25.140Z,99857.16
2023-03-26T09:28:26.416Z,99858.22
2023-03-26T09:31:18.014Z,99855.53
2023-03-26T09:34:15.442Z,99854.19
2023-03-26T09:37:15.001Z,99850.88
2023-03-26T09:40:05.013Z,99850.66
2023-03-26T09:42:54.304Z,99849.19
2023-03-26T09:45:47.687Z,99854.19
2023-03-26T09:48:43.784Z,99851.34
2023-03-26T09:51:32.049Z,99847.91
2023-03-26T09:54:38.601Z,99848.03
2023-03-26T09:57:29.189Z,99852.88
2023-03-26T10:00:17.079Z,99853.44
2023-03-26T10:03:14.917Z,99850.34
2023-03-26T10:06:03.706Z,99850.16
2023-03-26T10:08:55.325Z,99848.69
2023-03-26T10:11:55.255Z,99845.72
2023-03-26T10:14:42.209Z,99846.31
2023-03-26T10:17:33.538Z,99840.59
2023-03-26T10:20:26.506Z,99836.84
2023-03-26T10:23:16.750Z,99832.63
2023-03-26T10:26:18.798Z,99833.06
2023-03-26T10:29:09.625Z,99826.53
2023-03-26T10:31:57.574Z,99824.22
2023-03-26T10:34:56.494Z,99830.63
2023-03-26T10:37:51.486Z,99814.59
2023-03-26T10:40:42.683Z,99819.06
2023-03-26T10:43:31.245Z,99820.03
2023-03-26T10:46:36.756Z,99817.75
2023-03-26T10:49:33.606Z,99813.88
2023-03-26T10:52:20.862Z,99811.22
2023-03-26T10:55:12.560Z,99803.84
2023-03-26T10:57:59.096Z,99803.09
2023-03-26T11:00:45.738Z,99796.66
2023-03-26T11:03:38.527Z,99800.72
2023-03-26T11:06:29.862Z,99803.72
2023-03-26T11:09:19.799Z,99790.41
2023-03-26T11:12:26.647Z,99797.88
2023-03-26T11:15:17.838Z,99793.59
2023-03-26T11:18:06.006Z,99784.78
2023-03-26T11:20:52.367Z,99794.50
2023-03-26T11:23:41.314Z,99787.09
2023-03-26T11:26:28.058Z,99789.56
2023-03-26T11:29:31.129Z,99780.91
2023-03-26T11:32:21.077Z,99788.13
2023-03-26T11:35:08.897Z,99781.72
2023-03-26T11:37:55.812Z,99779.69
2023-03-26T11:40:42.564Z,99786.28
2023-03-26T11:43:37.131Z,99793.91
2023-03-26T11:46:24.808Z,99787.09
2023-03-26T11:49:11.708Z,99789.97
2023-03-26T11:51:59.026Z,99789.16
2023-03-26T11:54:48.160Z,99788.38
2023-03-26T11:57:34.092Z,99785.03
2023-03-26T12:00:21.018Z,99786.22
2023-03-26T12:03:08.577Z,99786.22
2023-03-26T12:05:58.794Z,99778.00
2023-03-26T12:08:44.548Z,99773.44
2023-03-26T12:11:35.652Z,99779.19
2023-03-26T12:14:22.023Z,99781.19
2023-03-26T12:17:08.789Z,99777.88
2023-03-26T12:19:55.892Z,99782.34
2023-03-26T12:22:44.331Z,99777.88
2023-03-26T12:25:31.798Z,99787.53
2023-03-26T12:28:18.160Z,99785.81
2023-03-26T12:31:05.555Z,99787.84
2023-03-26T12:34:05.978Z,99782.75
2023-03-26T12:36:54.377Z,99787.03
2023-03-26T12:40:10.486Z,99781.47
2023-03-26T12:44:53.470Z,99786.13
2023-03-26T12:47:54.551Z,99772.84
2023-03-26T12:49:01.982Z,99781.13
2023-03-26T12:51:49.325Z,99780.72
2023-03-26T12:54:42.997Z,99780.06
2023-03-26T12:57:30.632Z,99781.91
2023-03-26T13:00:21.308Z,99785.16
2023-03-26T13:03:11.928Z,99781.72
2023-03-26T13:06:00.395Z,99782.38
2023-03-26T13:08:50.908Z,99793.66
2023-03-26T13:11:39.715Z,99780.78
2023-03-26T13:14:35.247Z,99778.72
2023-03-26T13:17:23.112Z,99783.44
2023-03-26T13:20:12.168Z,99783.25
2023-03-26T13:22:59.329Z,99774.13
2023-03-26T13:25:46.685Z,99778.97
2023-03-26T13:28:34.985Z,99769.94
2023-03-26T13:31:22.696Z,99767.66
2023-03-26T13:34:11.014Z,99770.13
2023-03-26T13:37:00.062Z,99775.91
2023-03-26T13:39:49.899Z,99770.13
2023-03-26T13:42:39.261Z,99776.25
2023-03-26T13:45:30.475Z,99765.75
2023-03-26T13:48:18.158Z,99774.63
2023-03-26T13:51:05.689Z,99770.81
2023-03-26T13:53:53.525Z,99768.44
2023-03-26T13:56:41.538Z,99771.66
2023-03-26T13:59:30.390Z,99772.69
2023-03-26T14:02:18.890Z,99765.78
2023-03-26T14:05:05.665Z,99773.69
2023-03-26T14:07:52.291Z,99772.03
2023-03-26T14:10:38.920Z,99767.28
2023-03-26T14:13:25.856Z,99770.56
2023-03-26T14:16:13.172Z,99781.06
2023-03-26T14:19:04.499Z,99769.97
2023-03-26T14:21:56.870Z,99778.69
2023-03-26T14:25:01.030Z,99778.31
2023-03-26T14:27:50.076Z,99783.13
2023-03-26T14:30:41.736Z,99793.13
2023-03-26T14:33:42.468Z,99785.22
2023-03-26T14:36:38.864Z,99782.38
2023-03-26T14:39:32.750Z,99790.28
2023-03-26T14:42:19.660Z,99794.38
2023-03-26T14:45:09.786Z,99787.53
2023-03-26T14:48:09.732Z,99790.63
2023-03-26T14:50:59.618Z,99786.16
2023-03-26T14:53:47.475Z,99788.50
2023-03-26T14:56:39.749Z,99783.63
2023-03-26T14:59:44.308Z,99787.75
2023-03-26T15:02:42.422Z,99792.63
2023-03-26T15:05:33.720Z,99789.53
2023-03-26T15:08:36.195Z,99789.34
2023-03-26T15:11:25.603Z,99794.06
2023-03-26T15:14:17.438Z,99796.19
2023-03-26T15:17:34.339Z,99790.53
2023-03-26T15:20:44.314Z,99786.69
2023-03-26T15:23:49.512Z,99788.16
2023-03-26T15:26:57.428Z,99788.72
2023-03-26T15:30:13.587Z,99786.41
2023-03-26T15:33:07.328Z,99789.34
2023-03-26T15:36:09.700Z,99795.09
2023-03-26T15:39:01.147Z,99800.53
2023-03-26T15:41:47.810Z,99801.06
2023-03-26T15:44:47.246Z,99801.06
2023-03-26T15:47:50.752Z,99802.06
2023-03-26T15:50:40.714Z,99800.06
2023-03-26T15:53:33.585Z,99803.69
2023-03-26T15:56:26.743Z,99812.09
2023-03-26T15:59:16.497Z,99806.84
2023-03-26T16:02:03.990Z,99805.63
2023-03-26T16:04:51.266Z,99808.47
2023-03-26T16:07:47.198Z,99810.81
2023-03-26T16:10:35.846Z,99814.66
2023-03-26T16:13:24.886Z,99821.97
2023-03-26T16:16:25.937Z,99818.16
2023-03-26T16:19:36.087Z,99818.19
2023-03-26T16:22:42.895Z,99824.34
2023-03-26T16:25:32.642Z,99823.66
2023-03-26T16:28:28.927Z,99827.81
2023-03-26T16:31:36.759Z,99823.50
2023-03-26T16:34:28.626Z,99833.28
2023-03-26T16:37:35.520Z,99835.13
2023-03-26T16:40:28.175Z,99837.25
2023-03-26T16:43:29.236Z,99841.06
2023-03-26T16:46:24.538Z,99840.06
2023-03-26T16:49:17.042Z,99837.09
2023-03-26T16:52:07.097Z,99843.03
2023-03-26T16:54:55.179Z,99841.72
2023-03-26T16:57:42.587Z,99848.47
2023-03-26T17:00:35.719Z,99846.31
2023-03-26T17:03:28.529Z,99858.56
2023-03-26T17:06:37.944Z,99862.50
2023-03-26T17:09:24.577Z,99862.50
2023-03-26T17:12:14.968Z,99870.44
2023-03-26T17:15:05.762Z,99878.34
2023-03-26T17:18:02.559Z,99877.19
2023-03-26T17:20:55.805Z,99884.63
2023-03-26T17:23:48.275Z,99888.06
2023-03-26T17:26:42.157Z,99891.00
2023-03-26T17:29:29.802Z,99893.81
2023-03-26T17:32:16.056Z,99908.34
2023-03-26T17:35:03.561Z,99908.63
2023-03-26T17:37:51.373Z,99920.16
2023-03-26T17:40:45.609Z,99919.09
2023-03-26T17:43:36.379Z,99923.88
2023-03-26T17:46:31.626Z,99924.44
2023-03-26T17:49:18.172Z,99929.00
2023-03-26T17:52:04.891Z,99931.97
2023-03-26T17:54:52.259Z,99934.22
2023-03-26T17:57:41.793Z,99941.78
2023-03-26T18:00:29.137Z,99947.16
2023-03-26T18:03:15.257Z,99951.53
2023-03-26T18:06:05.270Z,99956.50
2023-03-26T18:08:56.151Z,99965.72
2023-03-26T18:11:50.681Z,99967.88
2023-03-26T18:14:46.785Z,99978.97
2023-03-26T18:17:32.635Z,99978.56
2023-03-26T18:20:23.191Z,99984.44
2023-03-26T18:23:10.275Z,99990.72
2023-03-26T18:25:57.728Z,99996.59
2023-03-26T18:28:45.733Z,100002.13
2023-03-26T18:31:31.523Z,100007.47
2023-03-26T18:34:18.825Z,100017.22
2023-03-26T18:37:15.498Z,100018.50
2023-03-26T18:40:02.194Z,100022.56
2023-03-26T18:42:48.638Z,100032.28
2023-03-26T18:45:37.090Z,100036.19
2023-03-26T18:48:23.972Z,100032.59
2023-03-26T18:51:09.876Z,100045.41
2023-03-26T18:53:56.918Z,100049.56
2023-03-26T18:56:43.542Z,100041.78
2023-03-26T18:59:32.102Z,100047.75
2023-03-26T19:02:19.752Z,100055.94
2023-03-26T19:05:06.235Z,100061.91
2023-03-26T19:07:52.314Z,100066.44
2023-03-26T19:10:38.263Z,100070.31
2023-03-26T19:13:24.399Z,100073.63
2023-03-26T19:16:13.589Z,100076.41
2023-03-26T19:19:00.867Z,100088.41
2023-03-26T19:21:46.915Z,100095.19
2023-03-26T19:24:32.641Z,100102.56
2023-03-26T19:27:19.214Z,100107.50
2023-03-26T19:30:05.480Z,100115.94
2023-03-26T19:32:53.257Z,100112.53
2023-03-26T19:35:41.921Z,100114.63
2023-03-26T19:38:29.236Z,100129.66
2023-03-26T19:41:18.944Z,100127.41
2023-03-26T19:44:13.567Z,100135.88
2023-03-26T19:47:02.338Z,100134.09
2023-03-26T19:49:50.149Z,100133.34
2023-03-26T19:52:38.218Z,100132.72
2023-03-26T19:55:24.907Z,100136.16
2023-03-26T19:58:11.025Z,100145.97
2023-03-26T20:00:57.176Z,100154.94
2023-03-26T20:03:43.625Z,100150.03
2023-03-26T20:06:42.652Z,100156.78
2023-03-26T20:09:30.805Z,100153.31
2023-03-26T20:12:16.702Z,100155.84
2023-03-26T20:15:02.761Z,100154.56
2023-03-26T20:17:50.137Z,100157.31
2023-03-26T20:20:36.386Z,100164.16
2023-03-26T20:23:23.784Z,100170.59
2023-03-26T20:26:12.787Z,100179.69
2023-03-26T20:28:58.820Z,100177.22
2023-03-26T20:31:45.794Z,100182.59
2023-03-26T20:34:31.967Z,100176.16
2023-03-26T20:37:17.745Z,100185.97
2023-03-26T20:40:07.121Z,100192.41
2023-03-26T20:42:54.489Z,100187.50
2023-03-26T20:45:40.645Z,100193.59
2023-03-26T20:48:26.909Z,100198.63
2023-03-26T20:51:13.834Z,100202.69
2023-03-26T20:54:00.335Z,100200.41
2023-03-26T20:56:47.788Z,100204.22
2023-03-26T20:59:35.789Z,100209.72
2023-03-26T21:02:21.766Z,100216.38
2023-03-26T21:05:14.697Z,100215.06
2023-03-26T21:08:01.051Z,100223.19
2023-03-26T21:10:47.499Z,100221.75
2023-03-26T21:13:35.219Z,100220.53
2023-03-26T21:16:23.042Z,100213.28
2023-03-26T21:19:10.096Z,100228.41
2023-03-26T21:21:59.068Z,100233.78
2023-03-26T21:24:48.173Z,100233.78
2023-03-26T21:27:37.177Z,100241.78
2023-03-26T21:30:23.646Z,100247.13
2023-03-26T21:33:10.823Z,100249.16
2023-03-26T21:35:57.267Z,100247.50
2023-03-26T21:38:44.533Z,100264.19
2023-03-26T21:41:35.701Z,100259.78
2023-03-26T21:44:21.991Z,100266.09
2023-03-26T21:47:09.766Z,100268.72
2023-03-26T21:49:57.626Z,100275.66
2023-03-26T21:52:47.922Z,100282.09
2023-03-26T21:55:34.916Z,100278.50
2023-03-26T21:58:27.775Z,100284.91
2023-03-26T22:01:16.725Z,100280.63
2023-03-26T22:04:05.452Z,100296.03
2023-03-26T22:06:54.880Z,100299.72
2023-03-26T22:09:40.843Z,100303.91
2023-03-26T22:12:27.024Z,100306.53
2023-03-26T22:15:13.675Z,100304.00
2023-03-26T22:18:03.469Z,100312.72
2023-03-26T22:20:49.648Z,100323.13
2023-03-26T22:23:38.151Z,100330.06
2023-03-26T22:26:24.628Z,100328.56
2023-03-26T22:29:10.493Z,100335.72
2023-03-26T22:31:56.378Z,100346.34
2023-03-26T22:34:42.417Z,100350.88
2023-03-26T22:37:28.635Z,100342.38
2023-03-26T22:40:17.877Z,100350.03
2023-03-26T22:43:04.090Z,100355.50
2023-03-26T22:45:50.808Z,100359.09
2023-03-26T22:48:37.028Z,100363.63
2023-03-26T22:51:22.796Z,100369.81
2023-03-26T22:54:09.343Z,100372.44
2023-03-26T22:56:56.792Z,100383.25
2023-03-26T22:59:43.182Z,100389.13
2023-03-26T23:02:28.995Z,100387.22
2023-03-26T23:05:17.226Z,100398.16
2023-03-26T23:08:03.081Z,100401.53
2023-03-26T23:10:48.914Z,100405.91
2023-03-26T23:13:36.577Z,100410.44
2023-03-26T23:16:22.445Z,100422.94
2023-03-26T23:19:08.631Z,100423.78
2023-03-26T23:21:57.265Z,100422.94
2023-03-26T23:24:49.333Z,100430.69
2023-03-26T23:27:49.112Z,100433.66
2023-03-26T23:30:42.461Z,100439.63
2023-03-26T23:33:31.410Z,100443.19
2023-03-26T23:36:18.706Z,100452.75
2023-03-26T23:39:05.574Z,100454.97
2023-03-26T23:41:51.506Z,100454.97
2023-03-26T23:44:39.047Z,100462.22
2023-03-26T23:47:27.003Z,100476.47
2023-03-26T23:50:13.113Z,100474.91
2023-03-26T23:52:59.440Z,100486.56
2023-03-26T23:55:45.733Z,100505.03
2023-03-26T23:58:31.447Z,100503.56
